Time;durP1;ratioP1;P1;durP2;ratioP2;P2;SDS_P1;SDS_P2;PMS_P1;PMS_P2;Temp;Humidity;BMP_temperature;BMP_pressure;BME280_temperature;BME280_humidity;BME280_pressure;Samples;Min_cycle;Max_cycle;Signal;HPM_P1;HPM_P2
2022/01/07 00:01:49;;;;;;;;;16.25;13.50;;;;;9.52;86.08;101508.97;5063823;28;62039;-74
2022/01/07 00:04:14;;;;;;;;;14.50;13.00;;;;;9.48;90.36;101504.34;5061328;28;63693;-75
2022/01/07 00:06:40;;;;;;;;;18.75;12.75;;;;;9.46;86.09;101487.63;5061628;28;61887;-75
2022/01/07 00:09:05;;;;;;;;;14.00;11.25;;;;;9.38;84.81;101481.03;5062326;28;61829;-75
2022/01/07 00:11:31;;;;;;;;;13.25;9.75;;;;;9.30;83.47;101471.84;5063938;28;61954;-75
2022/01/07 00:13:56;;;;;;;;;19.00;12.75;;;;;9.26;84.56;101461.97;5063138;28;62669;-75
2022/01/07 00:16:22;;;;;;;;;9.50;7.25;;;;;9.25;85.97;101463.66;5062947;28;61794;-75
2022/01/07 00:18:47;;;;;;;;;18.50;10.50;;;;;9.17;81.38;101455.38;5063500;28;61821;-75
2022/01/07 00:21:13;;;;;;;;;18.00;11.25;;;;;9.25;81.94;101453.19;5063003;28;61870;-75
2022/01/07 00:23:38;;;;;;;;;16.75;11.00;;;;;9.24;81.82;101443.53;5062590;28;61654;-74
2022/01/07 00:26:04;;;;;;;;;12.00;8.50;;;;;9.20;79.56;101459.88;5062676;28;61953;-75
2022/01/07 00:28:30;;;;;;;;;14.75;11.00;;;;;9.18;80.83;101445.78;5063316;28;61761;-75
2022/01/07 00:30:55;;;;;;;;;12.00;7.25;;;;;9.26;80.44;101447.16;5063287;28;61860;-74
2022/01/07 00:33:21;;;;;;;;;14.00;9.00;;;;;9.25;79.36;101432.22;5062349;28;61994;-75
2022/01/07 00:35:46;;;;;;;;;14.25;9.75;;;;;9.23;80.09;101435.56;5063150;28;61838;-75
2022/01/07 00:38:12;;;;;;;;;10.00;9.50;;;;;9.25;79.68;101447.06;5062657;28;62062;-75
2022/01/07 00:40:38;;;;;;;;;11.00;9.00;;;;;9.30;78.55;101435.16;5063360;28;61888;-75
2022/01/07 00:43:04;;;;;;;;;10.50;8.50;;;;;9.29;78.07;101444.69;5062813;28;61875;-75
2022/01/07 00:45:30;;;;;;;;;10.50;8.50;;;;;9.33;77.67;101440.56;5062643;28;61835;-75
2022/01/07 00:47:56;;;;;;;;;13.75;12.00;;;;;9.33;75.54;101451.94;5063113;28;61667;-74
2022/01/07 00:50:27;;;;;;;;;13.25;11.00;;;;;9.29;74.75;101443.81;5062966;28;62529;-75
2022/01/07 00:52:53;;;;;;;;;14.75;10.75;;;;;9.36;75.90;101441.66;5062354;28;62693;-74
2022/01/07 00:55:19;;;;;;;;;11.00;9.00;;;;;9.41;74.98;101436.69;5078396;28;61791;-75
2022/01/07 00:57:45;;;;;;;;;14.50;10.75;;;;;9.35;74.94;101420.59;5063088;28;62073;-75
2022/01/07 01:00:14;;;;;;;;;10.25;9.00;;;;;9.44;74.88;101429.00;5078645;27;62122;-74
2022/01/07 01:02:40;;;;;;;;;10.00;9.75;;;;;9.46;74.80;101430.00;5062117;28;62840;-75
2022/01/07 01:05:08;;;;;;;;;11.50;10.00;;;;;9.53;75.11;101424.31;5062405;28;61781;-75
2022/01/07 01:07:33;;;;;;;;;11.00;9.50;;;;;9.56;74.65;101421.88;5062416;28;62099;-75
2022/01/07 01:09:59;;;;;;;;;10.25;9.00;;;;;9.59;74.50;101423.75;5062763;28;61987;-75
2022/01/07 01:12:24;;;;;;;;;10.75;9.25;;;;;9.56;73.41;101440.22;5061920;28;63142;-75
2022/01/07 01:14:50;;;;;;;;;9.50;9.50;;;;;9.52;72.94;101427.75;5062472;28;61898;-75
2022/01/07 01:17:15;;;;;;;;;16.25;10.50;;;;;9.57;73.81;101423.66;5062524;28;62027;-75
2022/01/07 01:19:41;;;;;;;;;17.25;9.00;;;;;9.56;73.10;101418.34;5062480;28;61749;-74
2022/01/07 01:22:08;;;;;;;;;16.00;13.00;;;;;9.61;73.17;101422.13;5061847;28;61702;-75
2022/01/07 01:24:33;;;;;;;;;11.25;8.75;;;;;9.56;72.52;101415.72;5062224;28;61796;-74
2022/01/07 01:26:59;;;;;;;;;11.75;7.00;;;;;9.55;72.18;101413.91;5078063;28;61815;-75
2022/01/07 01:29:24;;;;;;;;;12.25;9.75;;;;;9.60;72.00;101410.75;5062470;28;61808;-75
2022/01/07 01:31:50;;;;;;;;;23.00;10.00;;;;;9.63;72.21;101416.16;5061438;28;62889;-74
2022/01/07 01:34:16;;;;;;;;;11.00;10.00;;;;;9.61;71.81;101406.41;5061285;28;61732;-75
2022/01/07 01:36:42;;;;;;;;;15.50;11.75;;;;;9.71;72.74;101421.84;5062190;28;61764;-75
2022/01/07 01:39:08;;;;;;;;;13.75;10.50;;;;;9.69;72.08;101419.97;5062541;28;61777;-74
2022/01/07 01:41:33;;;;;;;;;13.25;10.50;;;;;9.69;71.73;101415.63;5060364;28;63581;-74
2022/01/07 01:43:59;;;;;;;;;13.50;10.25;;;;;9.65;71.66;101424.13;5062341;28;61907;-75
2022/01/07 01:46:25;;;;;;;;;14.25;12.50;;;;;9.51;71.70;101420.69;5060544;28;61754;-74
2022/01/07 01:48:51;;;;;;;;;14.50;11.25;;;;;9.61;72.02;101417.78;5062157;28;61967;-74
2022/01/07 01:51:16;;;;;;;;;10.75;10.00;;;;;9.67;72.04;101411.09;5061979;28;62762;-75
2022/01/07 01:53:42;;;;;;;;;10.00;9.25;;;;;9.71;72.01;101411.38;5060282;28;62058;-75
2022/01/07 01:56:08;;;;;;;;;8.00;7.00;;;;;9.71;72.22;101406.13;5061904;28;61845;-75
2022/01/07 01:58:33;;;;;;;;;13.75;10.00;;;;;9.75;71.41;101407.22;5062001;28;61833;-75
2022/01/07 02:00:59;;;;;;;;;10.25;8.75;;;;;9.78;71.82;101395.16;5059516;28;63473;-74
2022/01/07 02:03:24;;;;;;;;;4.75;1.75;;;;;9.81;71.47;101397.97;5061744;28;61755;-75
2022/01/07 02:05:49;;;;;;;;;11.00;9.00;;;;;9.79;71.26;101390.81;5060408;28;61862;-75
2022/01/07 02:08:15;;;;;;;;;13.00;11.50;;;;;9.81;71.76;101391.81;5061939;28;61764;-75
2022/01/07 02:10:42;;;;;;;;;11.00;7.00;;;;;9.88;71.36;101399.22;5061128;28;61919;-75
2022/01/07 02:13:07;;;;;;;;;8.00;7.00;;;;;9.90;71.58;101394.97;5061827;28;62766;-74
2022/01/07 02:15:33;;;;;;;;;15.00;10.50;;;;;9.98;71.62;101393.69;5076998;28;62196;-74
2022/01/07 02:17:58;;;;;;;;;16.00;7.50;;;;;9.96;71.14;101382.22;5061932;28;62123;-75
2022/01/07 02:20:27;;;;;;;;;20.25;7.50;;;;;9.96;71.80;101384.84;5059845;28;64871;-75
2022/01/07 02:22:53;;;;;;;;;12.75;9.75;;;;;10.00;71.67;101385.91;5061250;28;62007;-75
2022/01/07 02:25:20;;;;;;;;;11.25;10.00;;;;;10.01;72.14;101379.84;5061387;28;61934;-74
2022/01/07 02:27:47;;;;;;;;;11.50;8.50;;;;;9.97;71.40;101373.53;5061599;28;61931;-75
2022/01/07 02:30:16;;;;;;;;;11.50;8.50;;;;;9.95;72.04;101371.63;5059605;28;64902;-74
2022/01/07 02:32:42;;;;;;;;;13.00;9.00;;;;;9.98;72.30;101369.16;5061128;28;62114;-75
2022/01/07 02:35:08;;;;;;;;;6.75;6.75;;;;;10.02;72.28;101373.78;5076832;28;61831;-75
2022/01/07 02:37:35;;;;;;;;;11.25;7.50;;;;;9.96;72.79;101360.31;5061602;28;62155;-75
2022/01/07 02:40:02;;;;;;;;;10.25;6.00;;;;;10.01;71.77;101348.38;5060178;28;61939;-75
2022/01/07 02:42:27;;;;;;;;;9.00;9.00;;;;;10.07;72.22;101356.59;5061467;28;61900;-74
2022/01/07 02:44:53;;;;;;;;;13.25;11.00;;;;;10.13;72.14;101356.94;5061751;28;62071;-75
2022/01/07 02:47:19;;;;;;;;;10.25;6.25;;;;;10.11;71.56;101353.31;5064965;28;61954;-75
2022/01/07 02:49:45;;;;;;;;;13.75;9.25;;;;;10.15;72.16;101354.38;5064568;28;62049;-75
2022/01/07 02:52:10;;;;;;;;;8.50;7.00;;;;;10.18;71.89;101350.22;5080674;28;62022;-75
2022/01/07 02:54:36;;;;;;;;;9.00;7.00;;;;;10.20;71.51;101364.31;5064693;28;61879;-75
2022/01/07 02:57:01;;;;;;;;;9.00;9.00;;;;;10.11;71.55;101353.31;5080313;27;62201;-74
2022/01/07 02:59:26;;;;;;;;;9.50;6.50;;;;;10.11;71.39;101349.78;5063674;28;61940;-75
2022/01/07 03:01:52;;;;;;;;;7.00;6.00;;;;;10.10;71.20;101347.97;5064429;28;61927;-74
2022/01/07 03:04:17;;;;;;;;;14.25;7.00;;;;;10.07;71.70;101346.09;5064942;28;62038;-74
2022/01/07 03:06:43;;;;;;;;;6.50;5.50;;;;;10.13;72.04;101343.81;5064754;28;61773;-75
2022/01/07 03:09:09;;;;;;;;;10.25;9.00;;;;;10.13;71.39;101337.66;5063963;28;61743;-75
2022/01/07 03:11:35;;;;;;;;;6.00;6.00;;;;;10.11;71.08;101334.97;5065019;28;61694;-74
2022/01/07 03:14:00;;;;;;;;;13.75;9.00;;;;;10.06;71.37;101336.41;5079830;27;61918;-74
2022/01/07 03:16:25;;;;;;;;;9.25;7.00;;;;;10.07;71.52;101345.16;5064918;28;62068;-74
2022/01/07 03:18:51;;;;;;;;;9.00;6.00;;;;;10.04;71.11;101335.41;5063975;28;61885;-74
2022/01/07 03:21:17;;;;;;;;;12.00;6.00;;;;;10.11;70.93;101341.91;5064718;28;61721;-75
2022/01/07 03:23:44;;;;;;;;;8.00;6.75;;;;;10.13;71.27;101346.44;5080019;28;61962;-75
2022/01/07 03:26:10;;;;;;;;;10.00;10.00;;;;;10.07;71.23;101334.69;5063977;28;61872;-75
2022/01/07 03:28:38;;;;;;;;;9.00;7.00;;;;;10.09;71.21;101335.66;5063537;28;62837;-74
2022/01/07 03:31:04;;;;;;;;;12.75;7.00;;;;;10.13;70.62;101325.47;5079627;27;61931;-74
2022/01/07 03:33:30;;;;;;;;;10.50;7.00;;;;;10.13;70.21;101325.47;5063870;28;62099;-75
2022/01/07 03:35:55;;;;;;;;;13.75;6.25;;;;;10.15;70.89;101326.41;5064409;28;61836;-75
2022/01/07 03:38:21;;;;;;;;;6.75;6.75;;;;;10.19;70.35;101325.75;5061925;28;63759;-75
2022/01/07 03:40:48;;;;;;;;;14.75;6.00;;;;;10.15;70.08;101323.78;5064319;28;62079;-74
2022/01/07 03:43:14;;;;;;;;;6.25;6.25;;;;;10.12;70.53;101327.97;5063976;28;61880;-74
2022/01/07 03:45:40;;;;;;;;;6.50;6.00;;;;;10.13;70.67;101321.91;5064269;28;61757;-75
2022/01/07 03:48:05;;;;;;;;;8.50;4.50;;;;;10.16;70.80;101328.22;5061970;28;64967;-74
2022/01/07 03:50:31;;;;;;;;;6.00;6.00;;;;;10.14;70.18;101324.63;5064251;28;61711;-75
2022/01/07 03:52:58;;;;;;;;;14.25;6.50;;;;;10.12;70.44;101310.53;5064140;28;61769;-75
2022/01/07 03:55:26;;;;;;;;;6.75;5.50;;;;;10.14;70.16;101313.22;5063990;28;61678;-74
2022/01/07 03:57:52;;;;;;;;;6.50;6.50;;;;;10.11;70.33;101319.22;5062599;28;62813;-75
2022/01/07 04:00:32;;;;;;;;;11.50;5.50;;;;;10.16;69.94;101320.38;5062495;28;62101;-75
2022/01/07 04:02:57;;;;;;;;;10.50;4.00;;;;;10.20;70.41;101306.59;5064152;28;61821;-75
2022/01/07 04:05:23;;;;;;;;;9.25;5.00;;;;;10.24;69.79;101303.31;5063618;28;61674;-75
2022/01/07 04:07:50;;;;;;;;;5.50;5.50;;;;;10.05;70.42;101292.66;5063325;28;62559;-74
2022/01/07 04:10:15;;;;;;;;;7.00;5.75;;;;;9.92;70.56;101295.41;5063715;28;61921;-75
2022/01/07 04:12:41;;;;;;;;;9.25;6.75;;;;;9.85;70.97;101291.53;5063527;28;61916;-75
2022/01/07 04:15:09;;;;;;;;;8.25;5.25;;;;;9.85;70.98;101295.88;5064030;28;61823;-74
2022/01/07 04:17:36;;;;;;;;;8.50;6.50;;;;;9.84;71.46;101295.00;5063078;28;61933;-75
2022/01/07 04:20:04;;;;;;;;;10.50;6.00;;;;;9.86;71.42;101298.59;5063655;28;61880;-75
2022/01/07 04:22:29;;;;;;;;;6.00;6.00;;;;;9.88;71.43;101299.59;5063686;28;62174;-75
2022/01/07 04:24:54;;;;;;;;;6.00;6.00;;;;;9.92;71.52;101288.47;5063688;28;61927;-75
2022/01/07 04:27:20;;;;;;;;;6.00;5.25;;;;;9.87;71.11;101289.91;5062314;28;61754;-75
2022/01/07 04:29:45;;;;;;;;;4.00;4.00;;;;;9.92;71.69;101298.03;5063556;28;61951;-75
2022/01/07 04:32:11;;;;;;;;;5.75;5.00;;;;;10.00;71.66;101291.47;5061996;28;61853;-75
2022/01/07 04:34:37;;;;;;;;;5.00;5.00;;;;;9.97;70.77;101286.09;5063234;28;62019;-74
2022/01/07 04:37:02;;;;;;;;;12.00;5.25;;;;;9.97;71.14;101288.69;5078622;28;64037;-75
2022/01/07 04:39:28;;;;;;;;;3.00;3.00;;;;;9.92;70.83;101298.94;5062896;28;61983;-75
2022/01/07 04:41:53;;;;;;;;;6.00;5.00;;;;;9.98;71.43;101301.91;5063373;28;61987;-75
2022/01/07 04:44:19;;;;;;;;;7.25;3.50;;;;;9.96;71.17;101310.47;5063652;28;61988;-75
2022/01/07 04:46:45;;;;;;;;;4.50;4.00;;;;;10.02;71.12;101311.72;5062346;28;61897;-75
2022/01/07 04:49:10;;;;;;;;;8.25;5.25;;;;;10.08;71.04;101316.41;5063365;28;61985;-75
2022/01/07 04:51:35;;;;;;;;;4.00;2.75;;;;;10.13;71.22;101308.78;5078725;28;61871;-75
2022/01/07 04:54:01;;;;;;;;;6.00;3.00;;;;;10.12;70.99;101304.38;5063478;28;61953;-76
2022/01/07 04:56:27;;;;;;;;;3.00;3.00;;;;;10.17;70.63;101306.41;5061996;28;61861;-76
2022/01/07 04:58:52;;;;;;;;;6.75;5.50;;;;;10.10;70.72;101308.63;5063091;28;62027;-76
2022/01/07 05:01:18;;;;;;;;;9.00;3.00;;;;;10.12;71.30;101309.63;5063275;28;61892;-76
2022/01/07 05:03:43;;;;;;;;;12.50;5.00;;;;;10.12;70.65;101299.13;5078830;27;61790;-76
2022/01/07 05:06:54;;;;;;;;;6.00;5.00;;;;;10.10;70.95;101296.41;5062335;28;62712;-76
2022/01/07 05:08:54;;;;;;;;;3.25;2.50;;;;;10.06;71.32;101289.19;5065728;27;62077;-76
2022/01/07 05:11:20;;;;;;;;;6.75;5.00;;;;;10.00;71.34;101288.84;5062819;28;61974;-75
2022/01/07 05:13:45;;;;;;;;;4.25;2.75;;;;;9.92;71.74;101277.97;5063156;28;61736;-76
2022/01/07 05:16:10;;;;;;;;;3.00;3.00;;;;;9.85;71.67;101273.19;5062219;28;62703;-76
2022/01/07 05:18:36;;;;;;;;;6.50;3.50;;;;;9.80;71.82;101280.81;5062724;28;61703;-76
2022/01/07 05:21:01;;;;;;;;;3.50;3.00;;;;;9.71;72.27;101282.03;5078572;28;62473;-76
2022/01/07 05:23:27;;;;;;;;;2.75;2.75;;;;;9.69;72.52;101278.41;5078321;28;61840;-76
2022/01/07 05:25:52;;;;;;;;;3.75;2.25;;;;;9.66;72.80;101280.84;5061760;28;61772;-76
2022/01/07 05:28:17;;;;;;;;;5.25;2.50;;;;;9.60;72.93;101294.53;5062843;28;62140;-76
2022/01/07 05:30:43;;;;;;;;;7.00;5.00;;;;;9.50;73.22;101297.44;5062247;28;61865;-76
2022/01/07 05:33:09;;;;;;;;;5.00;2.00;;;;;9.50;72.94;101295.72;5062795;28;61745;-76
2022/01/07 05:35:34;;;;;;;;;5.25;4.00;;;;;9.50;72.95;101295.72;5061950;28;61841;-76
2022/01/07 05:37:59;;;;;;;;;1.00;1.00;;;;;9.47;73.15;101289.38;5062501;28;61958;-76
2022/01/07 05:40:25;;;;;;;;;3.75;2.50;;;;;9.44;73.11;101266.53;5062675;28;61838;-76
2022/01/07 05:42:50;;;;;;;;;10.00;3.25;;;;;9.38;73.26;101268.81;5062423;28;62060;-76
2022/01/07 05:45:16;;;;;;;;;6.00;4.00;;;;;9.40;72.83;101273.34;5061976;28;62784;-76
2022/01/07 05:47:41;;;;;;;;;3.25;2.25;;;;;9.40;73.16;101280.28;5062045;28;61761;-76
2022/01/07 05:50:08;;;;;;;;;3.50;2.00;;;;;9.36;73.67;101289.69;5062658;28;61911;-76
2022/01/07 05:52:35;;;;;;;;;3.00;3.00;;;;;9.36;73.53;101294.00;5062607;28;61917;-76
2022/01/07 05:55:04;;;;;;;;;4.75;2.75;;;;;9.25;74.11;101287.25;5061756;28;62475;-76
2022/01/07 05:57:30;;;;;;;;;2.00;2.00;;;;;9.28;73.71;101290.97;5062356;28;61857;-76
2022/01/07 05:59:55;;;;;;;;;2.50;2.50;;;;;9.28;73.62;101292.69;5062088;28;61903;-76
2022/01/07 06:02:20;;;;;;;;;2.00;2.00;;;;;9.29;73.78;101295.38;5062349;28;62050;-76
2022/01/07 06:04:46;;;;;;;;;3.00;1.75;;;;;9.30;73.40;101291.97;5061325;28;62790;-76
2022/01/07 06:07:11;;;;;;;;;2.25;1.00;;;;;9.35;74.22;101289.59;5061874;28;61764;-76
2022/01/07 06:09:37;;;;;;;;;5.75;5.00;;;;;9.38;73.45;101293.31;5061962;28;61798;-76
2022/01/07 06:12:03;;;;;;;;;1.50;0.75;;;;;9.33;73.78;101283.38;5062040;28;61900;-76
2022/01/07 06:14:28;;;;;;;;;11.00;3.50;;;;;9.44;73.21;101286.59;5061721;28;61695;-76
2022/01/07 06:16:54;;;;;;;;;5.00;5.00;;;;;9.50;73.55;101290.47;5061532;28;62159;-76
2022/01/07 06:19:20;;;;;;;;;3.00;3.00;;;;;9.54;73.67;101299.41;5062665;28;61736;-76
2022/01/07 06:21:46;;;;;;;;;3.00;3.00;;;;;9.51;73.39;101308.03;5068713;28;61761;-76
2022/01/07 06:24:11;;;;;;;;;5.25;2.50;;;;;9.59;73.40;101304.09;5068075;28;62592;-76
2022/01/07 06:26:38;;;;;;;;;6.50;5.25;;;;;9.61;73.63;101309.44;5067027;28;61872;-76
2022/01/07 06:29:03;;;;;;;;;1.75;1.75;;;;;9.67;73.41;101298.41;5058154;28;61995;-75
2022/01/07 06:31:29;;;;;;;;;7.50;3.00;;;;;9.64;73.59;101296.50;5048235;28;61887;-75
2022/01/07 06:33:56;;;;;;;;;4.25;4.25;;;;;9.66;73.42;101291.34;5060976;28;61877;-74
2022/01/07 06:36:22;;;;;;;;;6.25;4.50;;;;;9.69;73.51;101289.78;5063521;28;61913;-74
2022/01/07 06:38:47;;;;;;;;;10.00;5.00;;;;;9.75;73.87;101298.00;5047985;28;61934;-74
2022/01/07 06:41:13;;;;;;;;;4.00;3.00;;;;;9.79;73.51;101291.19;5048318;28;61898;-74
2022/01/07 06:43:38;;;;;;;;;4.50;4.50;;;;;9.77;73.57;101288.50;5063016;28;63735;-75
2022/01/07 06:46:05;;;;;;;;;2.25;2.25;;;;;9.83;73.84;101290.56;5057770;28;61719;-75
2022/01/07 06:48:32;;;;;;;;;7.00;5.00;;;;;9.86;73.90;101285.50;5058017;28;61887;-75
2022/01/07 06:50:58;;;;;;;;;2.00;2.00;;;;;9.83;73.93;101286.22;5051946;28;61939;-75
2022/01/07 06:53:23;;;;;;;;;4.50;2.75;;;;;9.90;73.73;101281.34;5046921;28;61838;-74
2022/01/07 06:55:48;;;;;;;;;2.25;2.25;;;;;9.94;73.40;101285.91;5063022;28;61967;-75
2022/01/07 06:58:15;;;;;;;;;2.00;2.00;;;;;9.98;73.60;101295.75;5062411;28;62039;-75
2022/01/07 07:00:41;;;;;;;;;2.25;2.25;;;;;9.98;73.84;101285.25;5049933;28;62015;-77
2022/01/07 07:03:06;;;;;;;;;3.00;3.00;;;;;9.98;73.55;101286.19;5055650;28;62658;-75
2022/01/07 07:05:32;;;;;;;;;1.75;1.75;;;;;10.03;73.77;101303.06;5069400;28;61912;-74
2022/01/07 07:07:57;;;;;;;;;6.00;5.00;;;;;10.06;73.86;101302.31;5057809;28;61860;-75
2022/01/07 07:10:23;;;;;;;;;5.50;5.00;;;;;10.05;74.02;101303.16;5067203;28;61793;-75
2022/01/07 07:12:48;;;;;;;;;5.75;3.50;;;;;10.04;74.23;101304.84;5065186;28;63714;-75
2022/01/07 07:15:13;;;;;;;;;9.25;5.25;;;;;10.11;73.77;101308.72;5066665;28;62048;-75
2022/01/07 07:17:39;;;;;;;;;5.50;5.00;;;;;10.11;73.90;101305.19;5067102;28;62396;-75
2022/01/07 07:20:05;;;;;;;;;3.75;3.00;;;;;10.17;74.03;101318.63;5082096;27;61785;-75
2022/01/07 07:22:30;;;;;;;;;6.00;4.50;;;;;10.11;74.12;101308.72;5065101;28;61956;-75
2022/01/07 07:24:56;;;;;;;;;2.00;2.00;;;;;10.12;74.54;101310.53;5046449;28;61769;-75
2022/01/07 07:27:21;;;;;;;;;5.25;2.25;;;;;10.20;74.61;101303.97;5053695;28;61821;-74
2022/01/07 07:29:47;;;;;;;;;6.50;5.50;;;;;10.16;75.60;101304.63;5054962;28;61825;-77
2022/01/07 07:32:15;;;;;;;;;6.25;5.00;;;;;10.18;76.20;101313.47;5043631;28;62099;-75
2022/01/07 07:37:13;;;;;;;;;10.00;5.25;;;;;10.08;80.90;101326.91;5055442;28;62259;-76
2022/01/07 07:39:39;;;;;;;;;11.00;5.00;;;;;9.90;100.00;101325.91;5056484;28;62025;-76
2022/01/07 07:42:05;;;;;;;;;13.00;6.50;;;;;9.66;100.00;101333.28;5048066;28;61998;-76
2022/01/07 07:44:30;;;;;;;;;16.50;7.75;;;;;9.54;100.00;101341.34;5059179;28;62158;-76
2022/01/07 07:46:57;;;;;;;;;9.50;6.00;;;;;9.38;100.00;101363.13;5062671;28;62103;-76
2022/01/07 07:49:23;;;;;;;;;8.25;6.25;;;;;9.30;100.00;101393.25;5063068;28;62119;-76
2022/01/07 07:51:50;;;;;;;;;17.25;7.50;;;;;9.39;100.00;101399.00;5062618;28;61931;-76
2022/01/07 07:54:15;;;;;;;;;13.50;6.75;;;;;9.32;100.00;101394.19;5062917;28;61920;-77
2022/01/07 07:56:41;;;;;;;;;5.50;5.25;;;;;9.42;100.00;101380.84;5062637;28;61868;-76
2022/01/07 07:59:06;;;;;;;;;13.25;8.00;;;;;9.44;100.00;101357.34;5062861;28;61873;-76
2022/01/07 08:01:32;;;;;;;;;3.50;3.50;;;;;9.40;100.00;101348.41;5062592;28;62819;-76
2022/01/07 08:03:57;;;;;;;;;6.50;3.00;;;;;9.41;100.00;101335.41;5062922;28;61873;-77
2022/01/07 08:06:23;;;;;;;;;6.75;5.75;;;;;9.42;100.00;101342.44;5078531;28;61982;-76
2022/01/07 08:08:48;;;;;;;;;3.00;3.00;;;;;9.37;100.00;101350.84;5062993;28;61852;-76
2022/01/07 08:11:15;;;;;;;;;6.50;6.50;;;;;9.50;100.00;101344.59;5062037;28;62847;-76
2022/01/07 08:16:25;;;;;;;;;5.00;5.00;;;;;9.44;100.00;101345.16;5063064;28;62377;-76
2022/01/07 08:18:53;;;;;;;;;6.00;3.25;;;;;9.54;100.00;101342.25;5062766;28;61776;-76
2022/01/07 08:21:21;;;;;;;;;2.00;2.00;;;;;9.52;100.00;101340.34;5077692;28;63774;-76
2022/01/07 08:23:47;;;;;;;;;9.00;3.50;;;;;9.52;100.00;101346.50;5063099;28;61941;-76
2022/01/07 08:26:15;;;;;;;;;8.00;6.00;;;;;9.58;100.00;101339.00;5062384;28;62101;-77
2022/01/07 08:28:49;;;;;;;;;5.75;5.75;;;;;9.57;100.00;101349.38;5062922;28;61825;-76
2022/01/07 08:36:29;;;;;;;;;3.25;1.00;;;;;9.45;100.00;101331.25;5062544;28;61871;-76
2022/01/07 08:38:55;;;;;;;;;4.25;2.75;;;;;9.48;100.00;101330.50;5062623;28;61926;-76
2022/01/07 08:41:22;;;;;;;;;3.00;1.50;;;;;9.44;100.00;101318.94;5077560;28;64208;-76
2022/01/07 08:43:48;;;;;;;;;2.00;2.00;;;;;9.44;100.00;101325.91;5062244;28;61801;-77
2022/01/07 08:46:14;;;;;;;;;0.50;0.50;;;;;9.37;100.00;101301.06;5062153;28;61747;-77
2022/01/07 08:48:39;;;;;;;;;2.75;0.75;;;;;9.39;100.00;101305.59;5062625;28;61840;-77
2022/01/07 08:51:07;;;;;;;;;4.75;0.00;;;;;9.44;100.00;101290.13;5077574;28;63458;-77
2022/01/07 08:53:32;;;;;;;;;1.00;1.00;;;;;9.44;100.00;101273.50;5077872;28;61894;-76
2022/01/07 08:55:58;;;;;;;;;2.00;0.50;;;;;9.47;100.00;101286.75;5077890;28;61842;-77
2022/01/07 08:58:24;;;;;;;;;3.00;1.00;;;;;9.52;100.00;101301.94;5062248;28;61758;-77
2022/01/07 09:00:49;;;;;;;;;1.25;1.25;;;;;9.55;100.00;101304.72;5061427;28;61832;-77
2022/01/07 09:03:16;;;;;;;;;0.00;0.00;;;;;9.64;100.00;101320.09;5061954;28;62036;-76
2022/01/07 09:05:41;;;;;;;;;2.00;0.00;;;;;9.61;100.00;101320.81;5062380;28;61713;-76
2022/01/07 09:08:09;;;;;;;;;1.00;1.00;;;;;9.70;100.00;101330.00;5077728;27;61848;-76
2022/01/07 09:10:35;;;;;;;;;2.25;0.00;;;;;9.69;100.00;101334.34;5061344;28;62658;-77
2022/01/07 09:13:00;;;;;;;;;1.25;1.00;;;;;9.80;100.00;101329.72;5062108;28;61785;-76
2022/01/07 09:15:26;;;;;;;;;3.75;2.25;;;;;9.94;100.00;101338.34;5061919;28;61837;-76
2022/01/07 09:17:51;;;;;;;;;9.75;5.00;;;;;9.96;100.00;101328.84;5077558;27;61900;-77
2022/01/07 09:20:17;;;;;;;;;4.50;2.00;;;;;9.95;100.00;101334.91;5076694;28;63719;-77
2022/01/07 09:22:42;;;;;;;;;24.00;14.25;;;;;9.87;100.00;101326.63;5077346;28;61818;-76
2022/01/07 09:25:08;;;;;;;;;11.00;5.75;;;;;9.85;100.00;101333.50;5061754;28;62145;-76
2022/01/07 09:27:36;;;;;;;;;5.00;4.50;;;;;9.73;100.00;101333.72;5061808;28;61931;-76
2022/01/07 09:30:03;;;;;;;;;4.50;3.00;;;;;9.69;100.00;101336.09;5076525;28;63851;-76
2022/01/07 09:32:28;;;;;;;;;3.50;2.25;;;;;9.75;100.00;101339.06;5061419;28;62044;-77
2022/01/07 09:34:54;;;;;;;;;6.00;3.50;;;;;9.85;100.00;101337.84;5061593;28;62109;-76
2022/01/07 09:37:19;;;;;;;;;2.75;2.75;;;;;9.91;100.00;101340.81;5060657;28;61904;-77
2022/01/07 09:39:44;;;;;;;;;6.00;5.00;;;;;9.84;100.00;101339.56;5059389;28;64029;-76
2022/01/07 09:42:10;;;;;;;;;6.00;5.00;;;;;9.88;100.00;101332.78;5061712;28;61821;-76
2022/01/07 09:44:41;;;;;;;;;2.50;1.75;;;;;9.88;100.00;101338.03;5060087;28;61923;-76
2022/01/07 09:47:10;;;;;;;;;3.75;1.75;;;;;9.79;100.00;101336.69;5061536;28;61885;-77
2022/01/07 09:49:36;;;;;;;;;6.75;2.25;;;;;9.69;100.00;101336.09;5060604;28;61789;-77
2022/01/07 09:52:03;;;;;;;;;8.00;6.25;;;;;9.64;100.00;101338.44;5061397;28;61796;-76
2022/01/07 09:54:29;;;;;;;;;1.50;1.00;;;;;9.78;100.00;101332.25;5060589;28;62015;-77
2022/01/07 09:56:54;;;;;;;;;3.75;2.00;;;;;9.96;100.00;101329.78;5060956;28;61904;-77
2022/01/07 09:59:20;;;;;;;;;8.50;5.00;;;;;10.17;100.00;101329.13;5060637;28;62591;-76
2022/01/07 10:02:06;;;;;;;;;3.50;3.50;;;;;10.45;100.00;101328.94;5059568;28;61788;-77
2022/01/07 10:04:40;;;;;;;;;7.00;6.50;;;;;10.74;100.00;101326.97;5061088;28;61862;-76
2022/01/07 10:07:21;;;;;;;;;5.25;3.50;;;;;10.90;100.00;101320.75;5061246;28;61935;-77
2022/01/07 10:10:00;;;;;;;;;1.00;1.00;;;;;11.05;100.00;101327.72;5060415;28;62192;-76
2022/01/07 10:12:29;;;;;;;;;6.00;2.75;;;;;11.03;100.00;101334.63;5061339;28;62052;-76
2022/01/07 10:15:09;;;;;;;;;6.50;5.00;;;;;10.95;100.00;101340.31;5059524;28;62120;-77
2022/01/07 10:17:34;;;;;;;;;2.00;1.00;;;;;10.73;100.00;101326.06;5061092;28;61972;-76
2022/01/07 10:20:01;;;;;;;;;1.00;1.00;;;;;10.61;100.00;101328.94;5060364;28;61796;-77
2022/01/07 10:22:26;;;;;;;;;0.00;0.00;;;;;10.60;100.00;101327.16;5061340;28;61864;-76
2022/01/07 10:25:03;;;;;;;;;1.00;1.00;;;;;10.55;100.00;101318.09;5060989;28;61869;-76
2022/01/07 10:27:37;;;;;;;;;1.00;1.00;;;;;10.52;100.00;101324.91;5061007;28;62114;-77
2022/01/07 10:30:11;;;;;;;;;1.75;1.00;;;;;10.53;100.00;101319.75;5059837;28;61881;-77
2022/01/07 10:32:37;;;;;;;;;1.00;1.00;;;;;10.68;100.00;101311.78;5060696;28;61957;-76
2022/01/07 10:35:18;;;;;;;;;1.75;1.50;;;;;10.91;100.00;101314.72;5040935;28;61633;-76
2022/01/07 10:38:01;;;;;;;;;0.25;0.25;;;;;11.05;100.00;101306.72;5040896;28;61840;-76
2022/01/07 10:40:35;;;;;;;;;1.50;1.00;;;;;11.03;100.00;101304.81;5040103;28;61807;-77
2022/01/07 10:43:20;;;;;;;;;1.25;1.25;;;;;11.12;100.00;101300.03;5040531;28;61814;-76
2022/01/07 10:46:00;;;;;;;;;0.00;0.00;;;;;10.95;100.00;101290.41;5040515;28;61841;-76
2022/01/07 10:48:37;;;;;;;;;0.75;0.75;;;;;10.91;100.00;101299.84;5040720;28;62208;-77
2022/01/07 10:51:08;;;;;;;;;1.00;1.00;;;;;10.95;100.00;101314.94;5040110;28;61861;-76
2022/01/07 10:53:34;;;;;;;;;0.00;0.00;;;;;11.12;100.00;101304.38;5040327;28;61793;-76
2022/01/07 10:56:12;;;;;;;;;2.00;1.00;;;;;11.42;100.00;101315.53;5040217;28;61742;-76
2022/01/07 10:58:59;;;;;;;;;2.75;1.00;;;;;11.72;100.00;101312.56;5040241;28;61891;-76
2022/01/07 11:01:26;;;;;;;;;0.00;0.00;;;;;11.75;100.00;101291.69;5042204;28;62779;-76
2022/01/07 11:03:56;;;;;;;;;1.00;1.00;;;;;11.43;100.00;101297.19;5038579;28;62058;-77
2022/01/07 11:06:24;;;;;;;;;0.75;0.75;;;;;11.56;100.00;101295.16;5039957;28;61807;-77
2022/01/07 11:08:51;;;;;;;;;1.00;1.00;;;;;11.62;100.00;101304.25;5055354;28;62267;-76
2022/01/07 11:11:18;;;;;;;;;0.00;0.00;;;;;11.68;100.00;101290.50;5051228;28;61868;-76
2022/01/07 11:13:44;;;;;;;;;0.00;0.00;;;;;11.65;100.00;101285.06;5053904;28;62014;-77
2022/01/07 11:16:09;;;;;;;;;0.75;0.75;;;;;11.71;100.00;101285.38;5052250;27;61765;-75
2022/01/07 11:18:40;;;;;;;;;3.00;0.00;;;;;11.60;100.00;101266.47;5067715;28;61833;-76
2022/01/07 11:21:07;;;;;;;;;0.50;0.50;;;;;11.49;100.00;101272.03;5056099;28;61935;-76
2022/01/07 11:23:34;;;;;;;;;1.00;0.00;;;;;11.54;100.00;101275.78;5064731;28;62007;-76
2022/01/07 11:26:11;;;;;;;;;1.00;1.00;;;;;11.68;100.00;101279.09;5064530;28;62065;-76
2022/01/07 11:28:54;;;;;;;;;2.00;1.00;;;;;11.76;100.00;101285.59;5080230;28;62077;-76
2022/01/07 11:31:19;;;;;;;;;1.00;0.00;;;;;11.88;100.00;101286.22;5064102;28;61729;-76
2022/01/07 11:33:44;;;;;;;;;0.00;0.00;;;;;11.87;100.00;101273.88;5059889;28;61852;-75